createdAt,value
2022-12-06T00:01:04.142Z,1.73
2022-12-06T00:03:30.936Z,1.73
2022-12-06T00:06:08.338Z,1.80
2022-12-06T00:08:35.284Z,1.73
2022-12-06T00:11:09.855Z,1.80
2022-12-06T00:13:36.760Z,2.00
2022-12-06T00:16:04.316Z,1.50
2022-12-06T00:18:32.220Z,1.87
2022-12-06T00:21:17.809Z,1.60
2022-12-06T00:23:46.158Z,2.00
2022-12-06T00:26:13.046Z,1.70
2022-12-06T00:28:39.869Z,1.70
2022-12-06T00:31:08.379Z,1.73
2022-12-06T00:33:35.928Z,1.43
2022-12-06T00:36:07.213Z,1.37
2022-12-06T00:38:34.813Z,1.70
2022-12-06T00:41:05.718Z,1.33
2022-12-06T00:43:33.005Z,1.40
2022-12-06T00:46:00.183Z,1.43
2022-12-06T00:48:27.191Z,1.60
2022-12-06T00:50:54.025Z,1.27
2022-12-06T00:53:20.781Z,1.40
2022-12-06T00:55:47.471Z,1.20
2022-12-06T00:58:14.297Z,1.20
2022-12-06T01:00:40.963Z,1.50
2022-12-06T01:03:07.918Z,1.60
2022-12-06T01:05:34.621Z,1.60
2022-12-06T01:08:01.350Z,1.30
2022-12-06T01:10:28.321Z,1.63
2022-12-06T01:12:54.896Z,1.30
2022-12-06T01:15:21.498Z,1.37
2022-12-06T01:17:48.122Z,1.37
2022-12-06T01:20:14.736Z,1.30
2022-12-06T01:22:41.308Z,1.40
2022-12-06T01:25:08.277Z,1.50
2022-12-06T01:27:34.856Z,1.63
2022-12-06T01:30:01.794Z,1.60
2022-12-06T01:32:31.656Z,1.33
2022-12-06T01:34:58.259Z,1.33
2022-12-06T01:37:24.853Z,1.50
2022-12-06T01:39:51.458Z,1.10
2022-12-06T01:42:18.380Z,1.50
2022-12-06T01:44:47.041Z,1.27
2022-12-06T01:47:35.854Z,1.30
2022-12-06T01:50:08.387Z,1.07
2022-12-06T01:52:38.060Z,1.20
2022-12-06T01:55:06.007Z,1.30
2022-12-06T01:57:32.637Z,1.10
2022-12-06T01:59:59.479Z,1.10
2022-12-06T02:02:26.238Z,1.10
2022-12-06T02:04:52.971Z,1.10
2022-12-06T02:07:20.820Z,1.10
2022-12-06T02:09:47.789Z,1.10
2022-12-06T02:12:14.978Z,1.00
2022-12-06T02:14:42.412Z,1.10
2022-12-06T02:17:29.231Z,1.03
2022-12-06T02:20:36.088Z,1.43
2022-12-06T02:23:29.489Z,1.00
2022-12-06T02:26:19.508Z,1.07
2022-12-06T02:28:55.058Z,1.20
2022-12-06T02:31:40.763Z,1.10
2022-12-06T02:34:16.504Z,1.00
2022-12-06T02:36:53.772Z,1.17
2022-12-06T02:39:47.452Z,1.10
2022-12-06T02:42:29.164Z,0.80
2022-12-06T02:44:58.433Z,1.10
2022-12-06T02:47:30.413Z,1.20
2022-12-06T02:49:57.213Z,1.13
2022-12-06T02:52:25.132Z,1.10
2022-12-06T02:54:51.796Z,1.20
2022-12-06T02:57:19.439Z,1.00
2022-12-06T02:59:52.896Z,1.10
2022-12-06T03:02:19.595Z,1.40
2022-12-06T03:05:22.247Z,1.27
2022-12-06T03:07:49.277Z,1.10
2022-12-06T03:10:35.954Z,1.00
2022-12-06T03:13:05.384Z,1.17
2022-12-06T03:15:49.784Z,1.37
2022-12-06T03:18:21.943Z,1.17
2022-12-06T03:20:48.500Z,1.23
2022-12-06T03:23:18.807Z,1.10
2022-12-06T03:25:45.416Z,1.27
2022-12-06T03:28:13.323Z,1.30
2022-12-06T03:30:39.963Z,1.10
2022-12-06T03:33:06.553Z,1.30
2022-12-06T03:35:33.642Z,1.13
2022-12-06T03:38:09.002Z,1.40
2022-12-06T03:40:36.864Z,1.20
2022-12-06T03:43:03.813Z,1.40
2022-12-06T03:45:36.431Z,1.50
2022-12-06T03:48:04.756Z,1.50
2022-12-06T03:50:34.673Z,1.60
2022-12-06T03:53:01.336Z,1.20
2022-12-06T03:55:27.956Z,1.70
2022-12-06T03:57:54.536Z,1.30
2022-12-06T04:00:21.210Z,1.30
2022-12-06T04:02:47.808Z,1.70
2022-12-06T04:05:14.438Z,1.30
2022-12-06T04:07:41.135Z,1.43
2022-12-06T04:10:08.099Z,1.43
2022-12-06T04:12:53.710Z,1.33
2022-12-06T04:15:20.883Z,1.20
2022-12-06T04:18:05.842Z,1.27
2022-12-06T04:20:50.933Z,1.33
2022-12-06T04:23:18.121Z,1.90
2022-12-06T04:25:44.726Z,1.20
2022-12-06T04:28:29.727Z,2.17
2022-12-06T04:31:20.095Z,1.70
2022-12-06T04:34:06.986Z,1.83
2022-12-06T04:36:51.932Z,1.73
2022-12-06T04:39:21.059Z,1.70
2022-12-06T04:42:06.807Z,1.80
2022-12-06T04:44:33.396Z,1.40
2022-12-06T04:47:00.336Z,1.80
2022-12-06T04:49:27.035Z,1.70
2022-12-06T04:51:54.433Z,1.70
2022-12-06T04:54:21.607Z,1.67
2022-12-06T04:56:48.302Z,2.00
2022-12-06T04:59:14.908Z,1.63
2022-12-06T05:01:41.536Z,1.70
2022-12-06T05:04:08.202Z,1.70
2022-12-06T05:06:34.923Z,1.73
2022-12-06T05:09:01.583Z,1.60
2022-12-06T05:11:28.179Z,1.60
2022-12-06T05:13:54.804Z,1.60
2022-12-06T05:16:21.469Z,1.73
2022-12-06T05:18:48.131Z,1.70
2022-12-06T05:21:19.180Z,1.57
2022-12-06T05:23:45.796Z,1.40
2022-12-06T05:26:17.388Z,1.77
2022-12-06T05:28:44.786Z,1.53
2022-12-06T05:31:11.661Z,1.60
2022-12-06T05:33:38.666Z,1.60
2022-12-06T05:36:09.801Z,1.40
2022-12-06T05:38:36.441Z,1.60
2022-12-06T05:41:03.701Z,1.67
2022-12-06T05:43:30.452Z,1.63
2022-12-06T05:45:57.185Z,1.23
2022-12-06T05:48:23.975Z,1.30
2022-12-06T05:50:50.726Z,1.50
2022-12-06T05:53:17.504Z,1.50
2022-12-06T05:55:44.169Z,1.83
2022-12-06T05:58:10.760Z,1.70
2022-12-06T06:00:37.369Z,2.53
2022-12-06T06:03:04.182Z,2.50
2022-12-06T06:05:31.009Z,2.30
2022-12-06T06:07:57.670Z,2.60
2022-12-06T06:10:24.352Z,2.23
2022-12-06T06:12:51.001Z,2.63
2022-12-06T06:15:17.867Z,2.57
2022-12-06T06:17:44.540Z,2.50
2022-12-06T06:20:13.750Z,2.33
2022-12-06T06:22:40.636Z,2.33
2022-12-06T06:25:07.580Z,2.60
2022-12-06T06:27:39.825Z,2.40
2022-12-06T06:30:08.404Z,4.50
2022-12-06T06:32:35.478Z,2.80
2022-12-06T06:35:02.364Z,2.77
2022-12-06T06:37:29.034Z,1.87
2022-12-06T06:39:55.630Z,1.73
2022-12-06T06:42:22.289Z,1.93
2022-12-06T06:44:48.884Z,1.70
2022-12-06T06:47:15.513Z,2.00
2022-12-06T06:49:42.111Z,1.63
2022-12-06T06:52:08.727Z,1.90
2022-12-06T06:54:35.316Z,1.60
2022-12-06T06:57:02.936Z,2.00
2022-12-06T06:59:29.579Z,2.00
2022-12-06T07:01:56.421Z,1.67
2022-12-06T07:04:23.101Z,1.50
2022-12-06T07:06:49.690Z,1.50
2022-12-06T07:09:16.279Z,1.93
2022-12-06T07:11:42.899Z,2.00
2022-12-06T07:14:09.511Z,2.03
2022-12-06T07:16:36.184Z,1.77
2022-12-06T07:19:08.686Z,1.70
2022-12-06T07:21:35.756Z,1.43
2022-12-06T07:24:02.357Z,1.77
2022-12-06T07:26:29.045Z,1.53
2022-12-06T07:28:58.088Z,1.53
2022-12-06T07:31:27.403Z,1.90
2022-12-06T07:33:58.716Z,1.70
2022-12-06T07:36:26.082Z,2.20
2022-12-06T07:38:54.620Z,1.70
2022-12-06T07:41:41.149Z,1.90
2022-12-06T07:44:31.285Z,2.10
2022-12-06T07:46:57.986Z,1.30
2022-12-06T07:49:24.691Z,1.47
2022-12-06T07:51:52.860Z,1.77
2022-12-06T07:54:19.467Z,2.90
2022-12-06T07:56:46.076Z,3.93
2022-12-06T07:59:13.032Z,4.93
2022-12-06T08:01:39.698Z,3.83
2022-12-06T08:04:06.666Z,3.50
2022-12-06T08:06:33.741Z,3.40
2022-12-06T08:09:00.393Z,2.63
2022-12-06T08:11:26.981Z,2.33
2022-12-06T08:13:53.597Z,1.90
2022-12-06T08:16:20.255Z,1.80
2022-12-06T08:18:46.879Z,1.90
2022-12-06T08:21:13.490Z,2.10
2022-12-06T08:23:40.191Z,1.70
2022-12-06T08:26:08.637Z,1.50
2022-12-06T08:28:35.895Z,1.20
2022-12-06T08:31:10.500Z,1.30
2022-12-06T08:33:37.216Z,1.20
2022-12-06T08:36:08.933Z,1.20
2022-12-06T08:38:36.821Z,1.30
2022-12-06T08:41:03.926Z,1.20
2022-12-06T08:43:31.043Z,1.10
2022-12-06T08:45:57.852Z,1.00
2022-12-06T08:48:24.584Z,1.00
2022-12-06T08:50:51.250Z,1.20
2022-12-06T08:53:17.901Z,0.90
2022-12-06T08:55:58.686Z,0.73
2022-12-06T08:58:28.779Z,1.00
2022-12-06T09:00:55.382Z,1.00
2022-12-06T09:03:22.005Z,0.90
2022-12-06T09:05:48.594Z,0.97
2022-12-06T09:08:15.331Z,1.23
2022-12-06T09:10:43.292Z,1.00
2022-12-06T09:13:09.925Z,1.10
2022-12-06T09:15:38.388Z,1.20
2022-12-06T09:18:05.085Z,1.07
2022-12-06T09:20:31.706Z,1.00
2022-12-06T09:22:58.303Z,0.97
2022-12-06T09:25:25.054Z,1.17
2022-12-06T09:27:52.516Z,1.10
2022-12-06T09:30:19.136Z,1.27
2022-12-06T09:32:45.816Z,1.20
2022-12-06T09:35:15.315Z,1.00
2022-12-06T09:37:42.675Z,0.87
2022-12-06T09:40:16.826Z,0.90
2022-12-06T09:42:43.406Z,1.23
2022-12-06T09:45:19.518Z,1.00
2022-12-06T09:47:58.331Z,1.07
2022-12-06T09:50:33.742Z,1.30
2022-12-06T09:53:12.129Z,1.50
2022-12-06T09:56:06.575Z,1.37
2022-12-06T09:59:00.508Z,1.00
2022-12-06T10:02:15.343Z,1.00
2022-12-06T10:04:46.924Z,1.13
2022-12-06T10:07:19.657Z,1.00
2022-12-06T10:09:58.946Z,1.10
2022-12-06T10:12:37.412Z,1.00
2022-12-06T10:15:19.468Z,1.00
2022-12-06T10:18:01.521Z,1.37
2022-12-06T10:20:41.743Z,1.17
2022-12-06T10:23:21.259Z,1.40
2022-12-06T10:26:11.429Z,1.50
2022-12-06T10:28:45.077Z,1.50
2022-12-06T10:31:27.230Z,2.47
2022-12-06T10:34:04.788Z,1.90
2022-12-06T10:36:42.697Z,1.93
2022-12-06T10:39:34.728Z,2.13
2022-12-06T10:42:07.049Z,2.03
2022-12-06T10:44:37.879Z,2.10
2022-12-06T10:47:12.860Z,2.37
2022-12-06T10:49:41.693Z,2.60
2022-12-06T10:52:11.003Z,2.40
2022-12-06T10:54:54.084Z,2.40
2022-12-06T10:57:31.420Z,2.20
2022-12-06T11:00:18.411Z,2.33
2022-12-06T11:03:09.894Z,2.20
2022-12-06T11:05:49.832Z,2.00
2022-12-06T11:08:26.315Z,2.23
2022-12-06T11:10:52.929Z,2.20
2022-12-06T11:13:26.228Z,2.50
2022-12-06T11:16:20.193Z,2.30
2022-12-06T11:18:47.436Z,1.90
2022-12-06T11:21:34.284Z,2.07
2022-12-06T11:24:21.477Z,2.37
2022-12-06T11:27:21.692Z,2.20
2022-12-06T11:29:48.395Z,1.70
2022-12-06T11:32:15.029Z,1.90
2022-12-06T11:34:43.965Z,1.50
2022-12-06T11:37:17.453Z,1.70
2022-12-06T11:39:44.232Z,1.67
2022-12-06T11:42:11.716Z,1.50
2022-12-06T11:44:43.555Z,1.80
2022-12-06T11:47:17.774Z,1.70
2022-12-06T11:49:44.821Z,1.40
2022-12-06T11:52:18.179Z,1.50
2022-12-06T11:54:51.556Z,1.80
2022-12-06T11:57:24.124Z,2.00
2022-12-06T12:00:12.733Z,2.40
2022-12-06T12:02:39.648Z,2.10
2022-12-06T12:05:10.536Z,2.50
2022-12-06T12:07:38.243Z,1.77
2022-12-06T12:10:23.066Z,2.47
2022-12-06T12:13:08.128Z,2.37
2022-12-06T12:15:34.992Z,2.10
2022-12-06T12:18:01.735Z,2.13
2022-12-06T12:20:38.642Z,2.07
2022-12-06T12:23:25.466Z,1.90
2022-12-06T12:26:04.871Z,2.20
2022-12-06T12:28:33.037Z,1.73
2022-12-06T12:31:00.831Z,2.07
2022-12-06T12:33:28.286Z,2.40
2022-12-06T12:36:17.910Z,2.17
2022-12-06T12:39:00.812Z,2.20
2022-12-06T12:41:40.455Z,2.20
2022-12-06T12:47:19.820Z,3.13
2022-12-06T12:50:01.534Z,2.70
2022-12-06T12:52:32.306Z,2.73
2022-12-06T12:55:01.795Z,2.40
2022-12-06T12:57:28.765Z,2.20
2022-12-06T12:59:55.352Z,2.80
2022-12-06T13:02:27.263Z,2.10
2022-12-06T13:05:17.451Z,2.00
2022-12-06T13:07:46.423Z,2.07
2022-12-06T13:10:26.774Z,2.30
2022-12-06T13:12:58.551Z,2.03
2022-12-06T13:15:36.738Z,1.80
2022-12-06T13:18:22.608Z,1.80
2022-12-06T13:20:50.225Z,2.67
2022-12-06T13:23:19.039Z,2.00
2022-12-06T13:25:49.900Z,2.07
2022-12-06T13:28:18.781Z,1.90
2022-12-06T13:30:45.395Z,1.93
2022-12-06T13:33:21.387Z,2.00
2022-12-06T13:36:07.767Z,2.37
2022-12-06T13:38:35.942Z,2.00
2022-12-06T13:41:04.074Z,2.37
2022-12-06T13:43:33.916Z,2.63
2022-12-06T13:46:10.415Z,2.70
2022-12-06T13:48:59.693Z,2.90
2022-12-06T13:51:35.291Z,2.33
2022-12-06T13:54:05.122Z,2.53
2022-12-06T13:56:34.737Z,2.50
2022-12-06T13:59:05.644Z,2.20
2022-12-06T14:01:45.265Z,2.03
2022-12-06T14:04:24.176Z,2.00
2022-12-06T14:06:52.033Z,2.83
2022-12-06T14:09:18.678Z,2.60
2022-12-06T14:11:45.440Z,2.90
2022-12-06T14:14:16.270Z,2.70
2022-12-06T14:16:47.258Z,2.63
2022-12-06T14:19:22.777Z,2.60
2022-12-06T14:21:52.512Z,2.80
2022-12-06T14:24:36.501Z,2.90
2022-12-06T14:27:17.340Z,2.53
2022-12-06T14:29:44.656Z,3.53
2022-12-06T14:32:11.625Z,2.80
2022-12-06T14:34:38.235Z,3.17
2022-12-06T14:37:18.440Z,2.73
2022-12-06T14:39:50.534Z,2.80
2022-12-06T14:42:36.468Z,2.57
2022-12-06T14:45:03.347Z,2.53
2022-12-06T14:47:29.970Z,2.13
2022-12-06T14:50:16.604Z,3.07
2022-12-06T14:53:05.540Z,3.00
2022-12-06T14:55:58.856Z,3.00
2022-12-06T14:58:33.323Z,3.20
2022-12-06T15:01:01.112Z,3.30
2022-12-06T15:03:32.198Z,3.07
2022-12-06T15:06:20.517Z,3.63
2022-12-06T15:08:59.354Z,3.40
2022-12-06T15:12:10.523Z,3.50
2022-12-06T15:14:39.828Z,3.80
2022-12-06T15:17:19.081Z,3.77
2022-12-06T15:19:50.564Z,3.60
2022-12-06T15:22:24.868Z,3.83
2022-12-06T15:24:52.818Z,3.57
2022-12-06T15:27:21.201Z,4.10
2022-12-06T15:29:48.075Z,3.33
2022-12-06T15:32:15.535Z,3.13
2022-12-06T15:34:42.432Z,3.73
2022-12-06T15:37:37.474Z,3.80
2022-12-06T15:39:56.907Z,4.67
2022-12-06T15:42:23.745Z,4.23
2022-12-06T15:44:50.505Z,3.90
2022-12-06T15:47:20.965Z,4.17
2022-12-06T15:49:47.683Z,4.27
2022-12-06T15:52:19.019Z,4.33
2022-12-06T15:54:45.683Z,4.77
2022-12-06T15:57:12.283Z,4.67
2022-12-06T15:59:38.856Z,4.90
2022-12-06T16:02:12.341Z,4.30
2022-12-06T16:04:39.012Z,5.03
2022-12-06T16:07:05.615Z,5.13
2022-12-06T16:09:32.224Z,4.73
2022-12-06T16:11:58.838Z,5.10
2022-12-06T16:14:25.438Z,5.33
2022-12-06T16:16:52.120Z,5.63
2022-12-06T16:19:18.780Z,5.07
2022-12-06T16:21:55.724Z,5.87
2022-12-06T16:24:22.425Z,6.10
2022-12-06T16:26:48.995Z,5.00
2022-12-06T16:29:20.806Z,6.10
2022-12-06T16:31:47.685Z,5.83
2022-12-06T16:34:14.443Z,4.23
2022-12-06T16:36:59.887Z,4.77
2022-12-06T16:39:26.745Z,4.37
2022-12-06T16:41:53.340Z,4.83
2022-12-06T16:44:19.994Z,5.93
2022-12-06T16:46:46.808Z,5.63
2022-12-06T16:49:44.825Z,5.00
2022-12-06T16:52:01.132Z,7.00
2022-12-06T16:54:27.735Z,5.97
2022-12-06T16:56:54.344Z,6.33
2022-12-06T16:59:20.963Z,5.63
2022-12-06T17:01:54.900Z,6.00
2022-12-06T17:04:21.745Z,5.60
2022-12-06T17:06:48.425Z,6.30
2022-12-06T17:09:15.120Z,5.80
2022-12-06T17:12:00.146Z,5.83
2022-12-06T17:14:26.810Z,6.80
2022-12-06T17:16:53.580Z,6.10
2022-12-06T17:19:22.127Z,6.40
2022-12-06T17:21:49.380Z,6.90
2022-12-06T17:24:16.521Z,6.60
2022-12-06T17:26:43.181Z,6.90
2022-12-06T17:29:09.807Z,7.63
2022-12-06T17:31:36.710Z,7.03
2022-12-06T17:34:03.408Z,6.23
2022-12-06T17:36:30.445Z,6.93
2022-12-06T17:38:57.552Z,6.77
2022-12-06T17:41:48.526Z,7.10
2022-12-06T17:44:18.301Z,6.13
2022-12-06T17:46:44.894Z,5.77
2022-12-06T17:49:16.973Z,5.70
2022-12-06T17:51:43.564Z,5.40
2022-12-06T17:54:10.209Z,5.77
2022-12-06T17:56:38.424Z,6.23
2022-12-06T17:59:10.174Z,6.23
2022-12-06T18:02:06.141Z,6.30
2022-12-06T18:04:23.401Z,6.90
2022-12-06T18:06:50.049Z,5.83
2022-12-06T18:09:16.670Z,6.83
2022-12-06T18:11:43.514Z,6.07
2022-12-06T18:14:13.787Z,5.63
2022-12-06T18:16:41.171Z,6.33
2022-12-06T18:19:12.759Z,6.10
2022-12-06T18:21:39.721Z,5.60
2022-12-06T18:24:24.553Z,5.47
2022-12-06T18:26:53.286Z,5.23
2022-12-06T18:29:21.914Z,5.30
2022-12-06T18:31:48.857Z,5.43
2022-12-06T18:34:15.629Z,5.37
2022-12-06T18:36:42.274Z,5.23
2022-12-06T18:39:14.529Z,5.20
2022-12-06T18:41:42.906Z,5.57
2022-12-06T18:44:09.648Z,4.80
2022-12-06T18:46:37.872Z,5.40
2022-12-06T18:49:04.573Z,5.53
2022-12-06T18:51:32.692Z,6.13
2022-12-06T18:54:00.593Z,6.27
2022-12-06T18:56:27.248Z,6.00
2022-12-06T18:58:53.872Z,5.43
2022-12-06T19:01:22.348Z,5.73
2022-12-06T19:03:49.348Z,5.57
2022-12-06T19:06:17.948Z,5.17
2022-12-06T19:08:44.599Z,5.40
2022-12-06T19:11:20.568Z,5.43
2022-12-06T19:13:53.081Z,5.63
2022-12-06T19:16:30.974Z,5.73
2022-12-06T19:18:59.061Z,5.60
2022-12-06T19:21:25.834Z,5.50
2022-12-06T19:23:53.704Z,5.53
2022-12-06T19:26:20.860Z,5.50
2022-12-06T19:28:47.520Z,4.87
2022-12-06T19:31:14.473Z,5.90
2022-12-06T19:33:43.250Z,5.43
2022-12-06T19:36:18.878Z,6.27
2022-12-06T19:38:45.651Z,5.40
2022-12-06T19:41:16.793Z,4.83
2022-12-06T19:44:01.779Z,4.87
2022-12-06T19:46:29.131Z,5.20
2022-12-06T19:48:56.614Z,5.80
2022-12-06T19:51:23.523Z,6.27
2022-12-06T19:53:50.197Z,5.87
2022-12-06T19:56:17.104Z,6.27
2022-12-06T19:58:44.210Z,5.90
2022-12-06T20:01:11.955Z,5.90
2022-12-06T20:03:38.588Z,6.60
2022-12-06T20:06:17.718Z,6.80
2022-12-06T20:08:44.747Z,5.40
2022-12-06T20:11:30.521Z,5.90
2022-12-06T20:14:04.991Z,4.90
2022-12-06T20:16:32.206Z,4.87
2022-12-06T20:18:59.045Z,4.80
2022-12-06T20:21:25.649Z,4.10
2022-12-06T20:23:52.306Z,4.10
2022-12-06T20:26:19.068Z,4.73
2022-12-06T20:28:46.264Z,4.70
2022-12-06T20:31:31.175Z,3.87
2022-12-06T20:33:58.679Z,3.83
2022-12-06T20:36:25.586Z,3.50
2022-12-06T20:38:53.266Z,4.07
2022-12-06T20:41:21.304Z,3.80
2022-12-06T20:43:47.965Z,3.73
2022-12-06T20:46:16.487Z,3.83
2022-12-06T20:48:43.443Z,5.27
2022-12-06T20:51:14.592Z,4.40
2022-12-06T20:53:41.305Z,4.10
2022-12-06T20:56:09.580Z,4.13
2022-12-06T20:58:36.191Z,3.80
2022-12-06T21:01:03.301Z,4.23
2022-12-06T21:03:29.975Z,4.27
2022-12-06T21:06:07.968Z,4.80
2022-12-06T21:08:34.601Z,5.37
2022-12-06T21:11:22.218Z,5.10
2022-12-06T21:13:47.836Z,5.03
2022-12-06T21:16:16.233Z,4.80
2022-12-06T21:18:42.940Z,5.20
2022-12-06T21:21:09.784Z,5.77
2022-12-06T21:23:37.305Z,5.87
2022-12-06T21:26:04.989Z,5.07
2022-12-06T21:28:32.108Z,4.57
2022-12-06T21:30:58.823Z,4.93
2022-12-06T21:33:25.671Z,5.30
2022-12-06T21:35:52.625Z,5.50
2022-12-06T21:38:21.021Z,5.23
2022-12-06T21:40:52.960Z,5.07
2022-12-06T21:43:21.107Z,5.40
2022-12-06T21:45:47.736Z,4.77
2022-12-06T21:48:14.324Z,6.20
2022-12-06T21:50:40.923Z,7.17
2022-12-06T21:53:07.501Z,6.27
2022-12-06T21:55:34.108Z,6.23
2022-12-06T21:58:00.706Z,7.00
2022-12-06T22:00:27.310Z,8.03
2022-12-06T22:02:54.079Z,6.97
2022-12-06T22:05:21.026Z,7.43
2022-12-06T22:07:47.792Z,7.50
2022-12-06T22:10:14.419Z,8.17
2022-12-06T22:12:41.028Z,9.37
2022-12-06T22:15:08.127Z,10.30
2022-12-06T22:17:34.728Z,9.03
2022-12-06T22:20:01.565Z,8.40
2022-12-06T22:22:28.310Z,7.87
2022-12-06T22:24:54.988Z,6.70
2022-12-06T22:27:21.590Z,7.03
2022-12-06T22:29:48.215Z,7.03
2022-12-06T22:32:14.876Z,7.10
2022-12-06T22:34:41.465Z,7.50
2022-12-06T22:37:08.068Z,8.07
2022-12-06T22:39:34.641Z,8.57
2022-12-06T22:42:01.240Z,6.67
2022-12-06T22:44:27.826Z,6.20
2022-12-06T22:46:54.459Z,7.57
2022-12-06T22:49:21.067Z,6.40
2022-12-06T22:51:47.682Z,6.03
2022-12-06T22:54:14.544Z,5.93
2022-12-06T22:56:47.188Z,5.27
2022-12-06T22:59:14.308Z,5.23
2022-12-06T23:01:40.948Z,5.00
2022-12-06T23:04:07.631Z,4.37
2022-12-06T23:06:34.839Z,4.73
2022-12-06T23:09:01.519Z,3.80
2022-12-06T23:11:29.864Z,3.07
2022-12-06T23:13:56.546Z,3.73
2022-12-06T23:16:24.909Z,3.33
2022-12-06T23:18:51.776Z,3.27
2022-12-06T23:21:22.956Z,3.30
2022-12-06T23:23:54.116Z,2.87
2022-12-06T23:26:22.565Z,3.23
2022-12-06T23:28:49.880Z,3.30
2022-12-06T23:31:18.713Z,3.90
2022-12-06T23:33:45.656Z,3.80
2022-12-06T23:36:20.574Z,3.70
2022-12-06T23:38:47.175Z,4.00
2022-12-06T23:41:15.495Z,3.60
2022-12-06T23:43:42.184Z,4.83
2022-12-06T23:46:13.677Z,5.00
2022-12-06T23:48:40.515Z,4.97
2022-12-06T23:51:08.972Z,5.33
2022-12-06T23:53:35.911Z,5.50
2022-12-06T23:56:21.251Z,5.33
2022-12-06T23:58:47.911Z,4.93
